Time;durP1;ratioP1;P1;durP2;ratioP2;P2;SDS_P1;SDS_P2;PMS_P1;PMS_P2;Temp;Humidity;BMP_temperature;BMP_pressure;BME280_temperature;BME280_humidity;BME280_pressure;Samples;Min_cycle;Max_cycle;Signal;HPM_P1;HPM_P2
2021/11/18 00:08:54;;;;;;;5.90;2.05;;;7.20;99.90;;;;;;20724919;28;20050;-45
2021/11/18 00:18:55;;;;;;;6.00;1.50;;;7.30;99.90;;;;;;20726426;28;20053;-45
2021/11/18 00:28:56;;;;;;;3.00;0.88;;;7.30;99.90;;;;;;20731977;28;20030;-45
2021/11/18 00:38:57;;;;;;;7.82;3.53;;;7.20;99.90;;;;;;20732607;28;20046;-45
2021/11/18 00:48:58;;;;;;;4.95;0.98;;;7.20;99.90;;;;;;20733310;28;20282;-45
2021/11/18 00:58:59;;;;;;;8.30;1.60;;;7.20;99.90;;;;;;20718467;28;21019;-45
2021/11/18 01:09:00;;;;;;;6.90;1.38;;;7.30;99.90;;;;;;20712406;28;20042;-45
2021/11/18 01:19:03;;;;;;;3.55;1.88;;;7.30;99.90;;;;;;20712018;28;20061;-45
2021/11/18 01:29:04;;;;;;;3.08;1.00;;;7.30;99.90;;;;;;20704591;28;20034;-45
2021/11/18 01:39:06;;;;;;;8.45;1.83;;;7.30;99.90;;;;;;20735457;28;20516;-45
2021/11/18 01:49:08;;;;;;;3.25;1.15;;;7.30;99.90;;;;;;20733418;28;20037;-45
2021/11/18 01:59:19;;;;;;;4.40;1.05;;;7.30;99.90;;;;;;20727926;28;20068;-45
2021/11/18 02:09:24;;;;;;;8.43;2.72;;;7.40;99.90;;;;;;20730648;28;20121;-45
2021/11/18 02:19:24;;;;;;;8.10;1.48;;;7.50;99.90;;;;;;20744278;28;20160;-45
2021/11/18 02:29:25;;;;;;;10.80;1.45;;;7.60;99.90;;;;;;20729987;28;20045;-45
2021/11/18 02:39:26;;;;;;;5.75;2.03;;;7.60;99.90;;;;;;20723165;28;20060;-45
2021/11/18 02:49:27;;;;;;;6.87;2.37;;;7.70;99.90;;;;;;20720605;28;20040;-45
2021/11/18 02:59:28;;;;;;;8.95;1.65;;;7.70;99.90;;;;;;20736391;28;20284;-45
2021/11/18 03:09:30;;;;;;;10.05;1.65;;;7.80;99.90;;;;;;20746961;28;21448;-45
2021/11/18 03:19:31;;;;;;;6.88;1.40;;;7.90;99.90;;;;;;20739906;28;20038;-45
2021/11/18 03:29:32;;;;;;;4.55;1.13;;;7.90;99.90;;;;;;20731136;28;20052;-45
2021/11/18 03:39:33;;;;;;;9.63;1.75;;;8.00;99.90;;;;;;20719717;28;20453;-45
2021/11/18 03:49:36;;;;;;;3.33;1.48;;;8.10;99.90;;;;;;20721181;28;20079;-45
2021/11/18 03:59:38;;;;;;;7.45;1.75;;;8.10;99.90;;;;;;20737559;28;20060;-45
2021/11/18 04:09:40;;;;;;;3.28;1.23;;;8.20;99.90;;;;;;20736415;28;20045;-45
2021/11/18 04:19:41;;;;;;;7.18;1.48;;;8.20;99.90;;;;;;20717565;28;20934;-45
2021/11/18 04:29:42;;;;;;;5.95;1.70;;;8.20;99.90;;;;;;20726626;28;20149;-45
2021/11/18 04:39:44;;;;;;;4.70;1.75;;;8.30;99.90;;;;;;20738838;28;20049;-45
2021/11/18 04:49:47;;;;;;;7.95;2.38;;;8.20;99.90;;;;;;20731502;28;20340;-45
2021/11/18 04:59:49;;;;;;;6.75;1.65;;;8.20;99.90;;;;;;20716634;28;20045;-45
2021/11/18 05:09:49;;;;;;;5.78;1.50;;;8.20;99.90;;;;;;20728060;28;20044;-45
2021/11/18 05:19:51;;;;;;;5.63;1.60;;;8.30;99.90;;;;;;20749770;28;20056;-45
2021/11/18 05:29:52;;;;;;;12.02;1.83;;;8.40;99.90;;;;;;20757005;28;20041;-45
2021/11/18 05:39:53;;;;;;;9.40;2.22;;;8.30;99.90;;;;;;20737785;28;20056;-45
2021/11/18 05:49:54;;;;;;;3.42;1.60;;;8.40;99.90;;;;;;20741425;28;20041;-45
2021/11/18 05:59:54;;;;;;;4.20;1.73;;;8.50;99.90;;;;;;20754741;28;20294;-45
2021/11/18 06:09:55;;;;;;;8.33;2.30;;;8.50;99.90;;;;;;20737623;28;20292;-45
2021/11/18 06:19:55;;;;;;;7.93;1.80;;;8.40;99.90;;;;;;20734408;28;20307;-45
2021/11/18 06:29:56;;;;;;;7.65;1.73;;;8.50;99.90;;;;;;20759690;28;20030;-45
2021/11/18 06:39:57;;;;;;;6.07;1.55;;;8.40;99.90;;;;;;20729528;28;21003;-45
2021/11/18 06:49:59;;;;;;;7.35;2.17;;;8.40;99.90;;;;;;20718395;28;20033;-45
2021/11/18 07:00:01;;;;;;;9.55;1.48;;;8.30;99.90;;;;;;20717656;28;20506;-45
2021/11/18 07:10:05;;;;;;;7.35;2.00;;;8.20;99.90;;;;;;20742785;28;20041;-45
2021/11/18 07:20:08;;;;;;;12.13;1.85;;;8.30;99.90;;;;;;20734345;28;20943;-45
2021/11/18 07:30:10;;;;;;;11.15;3.22;;;8.30;99.90;;;;;;20727441;28;20037;-45
2021/11/18 07:40:14;;;;;;;4.13;1.42;;;8.40;99.90;;;;;;20713601;28;20052;-45
2021/11/18 07:50:16;;;;;;;6.35;2.58;;;8.40;99.90;;;;;;20716867;28;20210;-45
2021/11/18 08:00:20;;;;;;;9.77;2.15;;;8.40;99.90;;;;;;20733268;28;20040;-45
2021/11/18 08:10:20;;;;;;;10.40;1.83;;;8.30;99.90;;;;;;20751037;28;20046;-45
2021/11/18 08:20:23;;;;;;;7.82;2.25;;;8.40;99.90;;;;;;20750573;28;20071;-45
2021/11/18 08:30:29;;;;;;;9.05;2.03;;;8.50;99.90;;;;;;20747654;28;20068;-45
2021/11/18 08:40:31;;;;;;;6.68;2.50;;;8.50;99.90;;;;;;20749268;28;20398;-45
2021/11/18 08:50:33;;;;;;;9.55;2.45;;;8.60;99.90;;;;;;20739486;28;20053;-45
2021/11/18 09:00:53;;;;;;;7.50;2.35;;;8.90;99.90;;;;;;20738468;28;20544;-44
2021/11/18 09:10:53;;;;;;;10.10;2.67;;;9.00;99.90;;;;;;20742936;28;20033;-45
2021/11/18 09:20:58;;;;;;;8.48;2.05;;;9.30;99.90;;;;;;20736773;28;20067;-45
2021/11/18 09:31:05;;;;;;;8.30;2.92;;;9.50;99.90;;;;;;20732364;28;20038;-45
2021/11/18 09:41:24;;;;;;;;;;;9.60;99.90;;;;;;20737544;28;20136;-45
2021/11/18 09:51:43;;;;;;;;;;;9.70;99.90;;;;;;20733821;28;19917;-45
2021/11/18 10:02:03;;;;;;;10.38;1.98;;;9.80;99.90;;;;;;20748483;28;19920;-45
2021/11/18 10:12:28;;;;;;;4.43;2.28;;;10.00;99.90;;;;;;20738569;28;20037;-45
2021/11/18 10:22:33;;;;;;;12.23;2.63;;;10.30;99.90;;;;;;20711511;28;20040;-45
2021/11/18 10:32:46;;;;;;;10.18;2.50;;;10.70;99.90;;;;;;20733823;28;20045;-45
2021/11/18 10:43:17;;;;;;;14.82;3.20;;;10.90;99.90;;;;;;20736163;28;20540;-45
2021/11/18 10:53:29;;;;;;;9.32;2.58;;;11.10;99.90;;;;;;20693604;28;20038;-45
2021/11/18 11:03:34;;;;;;;8.30;2.33;;;11.60;99.90;;;;;;20709632;28;20132;-45
2021/11/18 11:14:10;;;;;;;11.68;3.75;;;12.10;99.90;;;;;;20746833;28;20158;-45
2021/11/18 11:24:22;;;;;;;13.60;2.40;;;12.90;99.90;;;;;;20758014;28;20412;-45
2021/11/18 11:34:44;;;;;;;7.90;2.30;;;13.20;99.90;;;;;;20761254;28;20038;-45
2021/11/18 11:44:54;;;;;;;12.98;3.28;;;13.30;99.90;;;;;;20760124;28;20057;-45
2021/11/18 11:55:07;;;;;;;7.38;1.45;;;13.30;99.90;;;;;;20753794;28;20045;-45
2021/11/18 12:05:26;;;;;;;6.03;2.40;;;13.60;99.90;;;;;;20750771;28;20061;-45
2021/11/18 12:15:29;;;;;;;3.97;1.67;;;13.60;99.90;;;;;;20745220;28;20064;-45
2021/11/18 12:25:46;;;;;;;9.13;1.27;;;13.70;99.90;;;;;;20742434;28;20125;-45
2021/11/18 12:36:11;;;;;;;5.60;1.80;;;13.50;99.90;;;;;;20744263;28;20411;-45
2021/11/18 12:46:11;;;;;;;7.88;1.83;;;13.70;99.90;;;;;;20744714;28;20048;-45
2021/11/18 12:56:29;;;;;;;5.30;1.80;;;14.00;99.90;;;;;;20741658;28;20168;-45
2021/11/18 13:06:29;;;;;;;6.10;2.03;;;13.10;99.90;;;;;;20742706;28;20655;-45
2021/11/18 13:16:34;;;;;;;11.75;1.63;;;12.70;99.90;;;;;;20747854;28;20502;-45
2021/11/18 13:26:44;;;;;;;6.25;1.67;;;12.50;99.90;;;;;;20745908;28;20037;-46
2021/11/18 13:37:12;;;;;;;8.70;1.60;;;12.40;99.90;;;;;;20751444;28;20053;-45
2021/11/18 13:47:32;;;;;;;5.20;1.60;;;12.50;99.90;;;;;;20749047;28;20468;-46
2021/11/18 13:57:47;;;;;;;5.30;1.27;;;12.50;99.90;;;;;;20752228;28;20046;-45
2021/11/18 14:07:55;;;;;;;7.03;2.20;;;12.50;99.90;;;;;;20754463;28;20052;-45
2021/11/18 14:18:17;;;;;;;2.95;1.38;;;12.50;99.90;;;;;;20742863;28;20045;-45
2021/11/18 14:28:32;;;;;;;2.83;0.95;;;12.50;99.90;;;;;;20757578;28;20374;-46
2021/11/18 14:38:42;;;;;;;8.10;1.75;;;12.60;99.90;;;;;;20764831;28;20057;-46
2021/11/18 14:48:51;;;;;;;5.53;0.65;;;12.60;99.90;;;;;;20761588;28;20047;-46
2021/11/18 14:58:57;;;;;;;15.15;1.80;;;12.60;99.90;;;;;;20747107;28;20497;-46
2021/11/18 15:09:14;;;;;;;6.07;0.85;;;12.50;99.90;;;;;;20722951;28;20432;-46
2021/11/18 15:19:16;;;;;;;1.35;0.45;;;12.50;99.90;;;;;;20729174;28;20033;-45
2021/11/18 15:29:17;;;;;;;2.67;0.85;;;12.40;99.90;;;;;;20733507;28;20610;-46
2021/11/18 15:39:19;;;;;;;2.20;0.65;;;12.40;99.90;;;;;;20732812;28;20057;-45
2021/11/18 15:49:23;;;;;;;4.40;0.45;;;12.50;99.90;;;;;;20732490;28;20050;-45
2021/11/18 15:59:24;;;;;;;6.32;0.95;;;12.20;99.90;;;;;;20730555;28;20029;-45
2021/11/18 16:09:25;;;;;;;5.80;1.65;;;12.20;99.90;;;;;;20729388;28;20041;-45
2021/11/18 16:19:29;;;;;;;4.28;1.00;;;12.10;99.90;;;;;;20706433;28;20090;-45
2021/11/18 16:29:32;;;;;;;4.22;1.48;;;12.10;99.90;;;;;;20694253;28;20041;-46
2021/11/18 16:39:35;;;;;;;3.88;0.95;;;12.10;99.90;;;;;;20679746;28;20040;-46
2021/11/18 16:49:36;;;;;;;5.22;0.88;;;12.20;99.90;;;;;;20694626;28;20049;-46
2021/11/18 16:59:37;;;;;;;5.43;1.52;;;12.10;99.90;;;;;;20703569;28;20041;-46
2021/11/18 17:09:39;;;;;;;19.98;1.52;;;12.10;99.90;;;;;;20725969;28;20127;-46
2021/11/18 17:19:42;;;;;;;4.20;0.90;;;12.10;99.90;;;;;;20722081;28;21084;-45
2021/11/18 17:29:53;;;;;;;2.30;0.68;;;12.20;99.90;;;;;;20717659;28;20045;-45
2021/11/18 17:39:58;;;;;;;4.70;1.52;;;12.20;99.90;;;;;;20724038;28;20125;-46
2021/11/18 17:50:01;;;;;;;7.75;1.67;;;12.00;99.90;;;;;;20722293;28;20462;-46
2021/11/18 18:00:08;;;;;;;10.23;2.42;;;12.00;99.90;;;;;;20727930;28;20101;-45
2021/11/18 18:10:11;;;;;;;4.10;1.48;;;12.10;99.90;;;;;;20731781;28;20140;-46
2021/11/18 18:20:18;;;;;;;10.60;1.33;;;12.20;99.90;;;;;;20731569;28;20045;-45
2021/11/18 18:30:29;;;;;;;15.97;3.50;;;12.10;99.90;;;;;;20713038;28;20033;-46
2021/11/18 18:40:34;;;;;;;7.88;1.63;;;12.10;99.90;;;;;;20722204;28;20049;-46
2021/11/18 18:50:40;;;;;;;7.57;1.30;;;12.10;99.90;;;;;;20712839;28;20084;-46
2021/11/18 19:00:52;;;;;;;13.02;2.88;;;12.00;99.90;;;;;;20713229;28;20092;-45
2021/11/18 19:10:56;;;;;;;7.63;1.88;;;12.20;99.90;;;;;;20715298;28;20131;-45
2021/11/18 19:20:58;;;;;;;4.97;1.70;;;12.10;99.90;;;;;;20715138;28;20832;-45
2021/11/18 19:41:28;;;;;;;7.30;1.70;;;12.10;99.90;;;;;;20702990;28;20041;-45
2021/11/18 19:51:33;;;;;;;6.85;1.23;;;12.10;99.90;;;;;;20722743;28;20474;-45
2021/11/18 20:01:44;;;;;;;10.65;2.05;;;12.10;99.90;;;;;;20744730;28;20069;-45
2021/11/18 20:11:45;;;;;;;3.63;1.38;;;12.00;99.90;;;;;;20734481;28;20097;-46
2021/11/18 20:21:45;;;;;;;4.90;1.45;;;12.00;99.90;;;;;;20730722;28;20049;-46
2021/11/18 20:31:50;;;;;;;11.98;2.20;;;12.10;99.90;;;;;;20737178;28;20115;-46
2021/11/18 20:41:50;;;;;;;5.25;1.75;;;12.10;99.90;;;;;;20731862;28;20103;-46
2021/11/18 20:51:59;;;;;;;5.55;2.00;;;12.10;99.90;;;;;;20709340;28;20037;-46
2021/11/18 21:02:05;;;;;;;6.55;1.63;;;12.20;99.90;;;;;;20729745;28;20044;-46
2021/11/18 21:12:08;;;;;;;4.13;1.70;;;12.10;99.90;;;;;;20730355;28;20052;-46
2021/11/18 21:22:10;;;;;;;6.95;2.58;;;12.10;99.90;;;;;;20724872;28;20048;-45
2021/11/18 21:32:11;;;;;;;8.32;1.60;;;12.20;99.90;;;;;;20725346;28;20067;-46
2021/11/18 21:42:15;;;;;;;9.07;2.10;;;12.20;99.90;;;;;;20726566;28;20057;-46
2021/11/18 21:52:18;;;;;;;6.47;2.20;;;12.10;99.90;;;;;;20741560;28;20097;-45
2021/11/18 22:02:19;;;;;;;9.00;2.05;;;12.00;99.90;;;;;;20745927;28;20057;-46
2021/11/18 22:12:22;;;;;;;10.68;3.53;;;11.90;99.90;;;;;;20728830;28;20045;-46
2021/11/18 22:22:26;;;;;;;10.98;3.63;;;11.70;99.90;;;;;;20737255;28;20084;-46
2021/11/18 22:32:27;;;;;;;15.82;6.05;;;11.70;99.90;;;;;;20742235;28;20437;-46
2021/11/18 22:42:30;;;;;;;13.07;4.03;;;11.60;99.90;;;;;;20741996;28;20437;-46
2021/11/18 22:52:31;;;;;;;18.90;4.47;;;11.40;99.90;;;;;;20744196;28;20757;-46
2021/11/18 23:02:32;;;;;;;15.27;5.17;;;11.40;99.90;;;;;;20733408;28;20500;-46
2021/11/18 23:12:33;;;;;;;8.48;3.30;;;11.30;99.90;;;;;;20734978;28;20559;-45
2021/11/18 23:22:39;;;;;;;12.80;4.05;;;11.40;99.90;;;;;;20734406;28;20038;-46
2021/11/18 23:32:41;;;;;;;9.82;4.32;;;11.40;99.90;;;;;;20735504;28;20041;-46
2021/11/18 23:42:42;;;;;;;7.90;3.80;;;11.40;99.90;;;;;;20738219;28;20055;-46
2021/11/18 23:52:43;;;;;;;18.08;3.42;;;11.40;99.90;;;;;;20732502;28;20043;-46
